Flight Track Log - Related Links

Times and Time Zones

All times are in EDT time to prevent confusion due to time zone crossing. See the MPE604 flight status page for this flight to view local times or setup timezone preferences in your user account.

Time Position Orientation Groundspeed Altitude Reporting Facility
EDT Latitude Longitude Course Direction KTS MPH feet Rate Location/Type
Fri 08:26:00 PM 66.7485 -65.0012 25° Northeast  Level FlightAware Approximate
Fri 08:27:00 PM 66.7956 -64.9453 25° Northeast  Level FlightAware Approximate
Fri 08:28:00 PM 66.8427 -64.8892 25° Northeast  Level FlightAware Approximate
Fri 08:29:00 PM 66.8897 -64.8329 25° Northeast  Level FlightAware Approximate
Fri 08:30:00 PM 66.9367 -64.7764 25° Northeast  Level FlightAware Approximate
Fri 08:31:00 PM 66.9837 -64.7197 25° Northeast  Level FlightAware Approximate
Fri 08:32:00 PM 67.0310 -64.6641 24° Northeast  Level FlightAware Approximate
Fri 08:33:00 PM 67.0783 -64.6091 24° Northeast  Level FlightAware Approximate
Fri 08:34:00 PM 67.1257 -64.5539 24° Northeast  Level FlightAware Approximate
Fri 08:35:00 PM 67.1730 -64.4985 24° Northeast  Level FlightAware Approximate
Fri 08:36:00 PM 67.2198 -64.4404 27° Northeast  Level FlightAware Approximate
Fri 08:37:00 PM 67.2661 -64.3790 27° Northeast  Level FlightAware Approximate
Fri 08:38:00 PM 67.3122 -64.3173 27° Northeast  Level FlightAware Approximate
Fri 08:39:00 PM 67.3584 -64.2554 27° Northeast  Level FlightAware Approximate
Fri 08:40:00 PM 67.4049 -64.1951 21° North  Level FlightAware Approximate
Fri 08:41:00 PM 67.4525 -64.1405 25° Northeast  Level FlightAware Approximate
Fri 08:42:00 PM 67.4997 -64.0837 25° Northeast  Level FlightAware Approximate
Fri 08:43:00 PM 67.5460 -64.0220 27° Northeast  Level FlightAware Approximate
Fri 08:44:00 PM 67.5458 -64.0314 180° South  Level Estimated
Fri 08:45:00 PM 67.5458 -64.0314 180° South  Level Estimated
Fri 08:46:00 PM 67.5458 -64.0314 180° South  Level Estimated
Fri 08:47:00 PM 67.5458 -64.0314 180° South  Level Estimated
Fri 08:48:00 PM 67.5458 -64.0314 180° South  Level Estimated
Fri 08:49:00 PM 67.5458 -64.0314 180° South  Level Estimated
Fri 08:50:00 PM 67.5458 -64.0314 180° South  Level Estimated
Fri 08:51:00 PM 67.5458 -64.0314 180° South  Level Estimated
Fri 08:52:00 PM 67.5458 -64.0314 180° South  Level Estimated
Fri 08:53:00 PM 67.5458 -64.0314 180° South  Level Estimated
Fri 08:54:00 PM 67.5458 -64.0314 180° South  Level Estimated
Fri 08:55:00 PM 67.5458 -64.0314 180° South  Level Estimated
Fri 08:56:00 PM 67.5458 -64.0314 180° South  Level Estimated
Fri 08:57:00 PM 67.5458 -64.0314 180° South  Level Estimated
Fri 08:58:00 PM 67.5458 -64.0314 180° South  Level Estimated
Fri 08:59:00 PM 67.5458 -64.0314 180° South  Level Estimated

Login

Don't have an account? Register now (free) for customized features, flight alerts, and more!